Aviation Digital Data Service (ADDS)

Output produced by TAFs form (2028 UTC 18 July 2018)
found at http://www.aviationweather.gov/adds/tafs/
 
KERI 181951Z 34010KT 10SM CLR 25/12 A3007 RMK AO2 SLP179 T02500122
KERI 181720Z 1818/1918 01012KT P6SM SCT040 
     FM190000 06003KT P6SM SKC
       
KFKL 181956Z AUTO 32004KT 10SM FEW045 SCT060 24/13 A3007 RMK AO2 SLP177 T02440133
KFKL 181720Z 1818/1918 34005KT P6SM SCT045 
     FM182300 VRB05KT P6SM SKC 
     FM191500 13005KT P6SM SCT040
       
KYNG 181951Z VRB05KT 10SM BKN050 26/12 A3006 RMK AO2 SLP174 T02610122
KYNG 181720Z 1818/1918 36008KT P6SM BKN050 
     FM190200 04003KT P6SM SKC
       
KBVI 181947Z AUTO 00000KT 10SM BKN055 25/11 A3007
KBVI 181720Z 1818/1918 36006KT P6SM SCT045 
     FM182200 34005KT P6SM SKC 
     FM191600 11005KT P6SM SCT045
       
KAGC 181953Z VRB05KT 10SM SCT065 26/13 A3005 RMK AO2 SLP173 T02560128
KAGC 181720Z 1818/1918 35005KT P6SM SCT040 
     FM182200 34005KT P6SM SKC 
     FM191600 12005KT P6SM SCT045
       
KPIT 181951Z VRB05KT 10SM SCT060 26/09 A3006 RMK AO2 SLP178 T02560094
KPIT 181720Z 1818/1924 35009KT P6SM SCT040 
     FM182200 35005KT P6SM SCT250 
     FM191600 12005KT P6SM SCT045
       
KBTP 181956Z AUTO 00000KT 10SM FEW060 25/11 A3007 RMK AO2 SLP181 T02500111